createdAt,value
2017-06-24T00:00:05.663Z,942.1
2017-06-24T00:00:34.263Z,942.14
2017-06-24T00:01:02.771Z,942.14
2017-06-24T00:01:31.379Z,942.12
2017-06-24T00:01:59.879Z,942.15
2017-06-24T00:02:28.401Z,942.12
2017-06-24T00:02:57.017Z,942.11
2017-06-24T00:03:25.601Z,942.17
2017-06-24T00:03:54.225Z,942.15
2017-06-24T00:04:22.735Z,942.17
2017-06-24T00:04:51.233Z,942.14
2017-06-24T00:05:19.856Z,942.16
2017-06-24T00:05:48.446Z,942.15
2017-06-24T00:06:16.948Z,942.19
2017-06-24T00:06:45.556Z,942.13
2017-06-24T00:07:14.077Z,942.16
2017-06-24T00:07:42.672Z,942.2
2017-06-24T00:08:11.091Z,942.11
2017-06-24T00:08:39.715Z,942.16
2017-06-24T00:09:08.323Z,942.15
2017-06-24T00:09:36.732Z,942.11
2017-06-24T00:10:05.346Z,942.15
2017-06-24T00:10:33.957Z,942.16
2017-06-24T00:11:02.569Z,942.12
2017-06-24T00:11:31.255Z,942.15
2017-06-24T00:11:59.769Z,942.15
2017-06-24T00:12:28.317Z,942.13
2017-06-24T00:12:56.949Z,942.13
2017-06-24T00:13:25.566Z,942.16
2017-06-24T00:13:54.084Z,942.17
2017-06-24T00:14:22.709Z,942.17
2017-06-24T00:14:51.319Z,942.16
2017-06-24T00:15:19.829Z,942.17
2017-06-24T00:15:48.329Z,942.16
2017-06-24T00:16:16.840Z,942.14
2017-06-24T00:16:45.481Z,942.11
2017-06-24T00:17:18.236Z,942.11
2017-06-24T00:17:46.647Z,942.12
2017-06-24T00:18:15.232Z,942.11
2017-06-24T00:18:44.033Z,942.11
2017-06-24T00:19:12.688Z,942.08
2017-06-24T00:19:41.277Z,942.06
2017-06-24T00:20:09.788Z,942.05
2017-06-24T00:20:38.431Z,942.08
2017-06-24T00:21:07.057Z,942.11
2017-06-24T00:21:35.685Z,942.08
2017-06-24T00:22:04.125Z,942.08
2017-06-24T00:22:32.731Z,942.11
2017-06-24T00:23:01.358Z,942.11
2017-06-24T00:23:29.853Z,942.12
2017-06-24T00:23:58.452Z,942.11
2017-06-24T00:24:27.009Z,942.11
2017-06-24T00:24:55.499Z,942.11
2017-06-24T00:25:24.119Z,942.11
2017-06-24T00:25:53.043Z,942.08
2017-06-24T00:26:21.786Z,942.1
2017-06-24T00:26:50.399Z,942.12
2017-06-24T00:27:18.903Z,942.11
2017-06-24T00:27:47.426Z,942.16
2017-06-24T00:28:15.947Z,942.16
2017-06-24T00:28:44.554Z,942.2
2017-06-24T00:29:12.967Z,942.15
2017-06-24T00:29:41.617Z,942.17
2017-06-24T00:30:09.978Z,942.15
2017-06-24T00:30:38.763Z,942.2
2017-06-24T00:31:07.373Z,942.17
2017-06-24T00:31:35.987Z,942.17
2017-06-24T00:32:04.618Z,942.18
2017-06-24T00:32:33.144Z,942.18
2017-06-24T00:33:01.738Z,942.18
2017-06-24T00:33:30.348Z,942.15
2017-06-24T00:33:58.840Z,942.15
2017-06-24T00:34:27.244Z,942.15
2017-06-24T00:34:55.858Z,942.18
2017-06-24T00:35:24.477Z,942.13
2017-06-24T00:35:53.066Z,942.18
2017-06-24T00:36:21.682Z,942.17
2017-06-24T00:36:50.123Z,942.16
2017-06-24T00:37:18.710Z,942.16
2017-06-24T00:37:47.287Z,942.14
2017-06-24T00:38:15.910Z,942.15
2017-06-24T00:38:44.520Z,942.15
2017-06-24T00:39:13.094Z,942.15
2017-06-24T00:39:41.624Z,942.16
2017-06-24T00:40:10.133Z,942.16
2017-06-24T00:40:38.739Z,942.17
2017-06-24T00:41:07.261Z,942.17
2017-06-24T00:41:35.772Z,942.17
2017-06-24T00:42:04.367Z,942.15
2017-06-24T00:42:32.854Z,942.18
2017-06-24T00:43:01.447Z,942.19
2017-06-24T00:43:29.868Z,942.21
2017-06-24T00:43:58.470Z,942.17
2017-06-24T00:44:27.062Z,942.18
2017-06-24T00:44:55.675Z,942.16
2017-06-24T00:45:24.119Z,942.16
2017-06-24T00:45:52.640Z,942.16
2017-06-24T00:46:21.175Z,942.15
2017-06-24T00:46:49.776Z,942.15
2017-06-24T00:47:18.381Z,942.19
2017-06-24T00:47:46.983Z,942.17
2017-06-24T00:48:15.602Z,942.18
2017-06-24T00:48:44.013Z,942.18
2017-06-24T00:49:12.654Z,942.2
2017-06-24T00:49:41.296Z,942.16
2017-06-24T00:50:09.931Z,942.21
2017-06-24T00:50:38.485Z,942.22
2017-06-24T00:51:07.120Z,942.21
2017-06-24T00:51:35.738Z,942.19
2017-06-24T00:52:04.342Z,942.2
2017-06-24T00:52:32.856Z,942.2
2017-06-24T00:53:01.461Z,942.19
2017-06-24T00:53:30.052Z,942.16
2017-06-24T00:53:58.548Z,942.16
2017-06-24T00:54:27.080Z,942.18
2017-06-24T00:54:55.679Z,942.19
2017-06-24T00:55:24.304Z,942.2
2017-06-24T00:55:52.892Z,942.19
2017-06-24T00:56:21.431Z,942.17
2017-06-24T00:56:49.970Z,942.21
2017-06-24T00:57:18.595Z,942.23
2017-06-24T00:57:47.194Z,942.23
2017-06-24T00:58:15.790Z,942.22
2017-06-24T00:58:44.311Z,942.25
2017-06-24T00:59:12.917Z,942.21
2017-06-24T00:59:41.519Z,942.22
2017-06-24T01:00:10.114Z,942.24
2017-06-24T01:00:38.647Z,942.19
2017-06-24T01:01:07.246Z,942.2
2017-06-24T01:01:35.776Z,942.21
2017-06-24T01:02:04.285Z,942.21
2017-06-24T01:02:32.831Z,942.2
2017-06-24T01:03:01.332Z,942.25
2017-06-24T01:03:29.864Z,942.23
2017-06-24T01:03:58.397Z,942.24
2017-06-24T01:04:26.928Z,942.23
2017-06-24T01:04:55.518Z,942.22
2017-06-24T01:05:24.112Z,942.24
2017-06-24T01:05:52.701Z,942.25
2017-06-24T01:06:21.340Z,942.26
2017-06-24T01:06:49.957Z,942.24
2017-06-24T01:07:18.578Z,942.25
2017-06-24T01:07:46.993Z,942.26
2017-06-24T01:08:15.530Z,942.25
2017-06-24T01:08:44.071Z,942.23
2017-06-24T01:09:12.682Z,942.22
2017-06-24T01:09:41.294Z,942.27
2017-06-24T01:10:09.909Z,942.25
2017-06-24T01:10:38.499Z,942.22
2017-06-24T01:11:07.187Z,942.22
2017-06-24T01:11:35.707Z,942.24
2017-06-24T01:12:04.236Z,942.21
2017-06-24T01:12:32.843Z,942.21
2017-06-24T01:13:01.439Z,942.22
2017-06-24T01:13:30.029Z,942.23
2017-06-24T01:13:58.512Z,942.27
2017-06-24T01:14:27.042Z,942.28
2017-06-24T01:14:55.667Z,942.27
2017-06-24T01:15:24.292Z,942.25
2017-06-24T01:15:52.811Z,942.26
2017-06-24T01:16:21.329Z,942.25
2017-06-24T01:16:49.948Z,942.28
2017-06-24T01:17:18.457Z,942.3
2017-06-24T01:17:47.080Z,942.3
2017-06-24T01:18:15.683Z,942.27
2017-06-24T01:18:44.302Z,942.29
2017-06-24T01:19:12.933Z,942.29
2017-06-24T01:19:41.529Z,942.26
2017-06-24T01:20:10.058Z,942.29
2017-06-24T01:20:38.691Z,942.29
2017-06-24T01:21:07.286Z,942.25
2017-06-24T01:21:35.773Z,942.29
2017-06-24T01:22:04.280Z,942.27
2017-06-24T01:22:32.785Z,942.28
2017-06-24T01:23:01.401Z,942.26
2017-06-24T01:23:30.015Z,942.27
2017-06-24T01:23:58.525Z,942.27
2017-06-24T01:24:27.138Z,942.26
2017-06-24T01:24:55.733Z,942.24
2017-06-24T01:25:24.135Z,942.26
2017-06-24T01:25:52.725Z,942.26
2017-06-24T01:26:21.351Z,942.24
2017-06-24T01:26:49.974Z,942.27
2017-06-24T01:27:18.504Z,942.26
2017-06-24T01:27:47.116Z,942.25
2017-06-24T01:28:15.629Z,942.29
2017-06-24T01:28:44.254Z,942.27
2017-06-24T01:29:12.790Z,942.27
2017-06-24T01:29:41.282Z,942.29
2017-06-24T01:30:09.904Z,942.27
2017-06-24T01:30:38.531Z,942.27
2017-06-24T01:31:07.166Z,942.31
2017-06-24T01:31:35.758Z,942.27
2017-06-24T01:32:04.358Z,942.33
2017-06-24T01:32:32.884Z,942.27
2017-06-24T01:33:01.388Z,942.31
2017-06-24T01:33:29.901Z,942.31
2017-06-24T01:33:58.517Z,942.34
2017-06-24T01:34:27.135Z,942.32
2017-06-24T01:34:55.741Z,942.38
2017-06-24T01:35:24.240Z,942.35
2017-06-24T01:35:52.864Z,942.32
2017-06-24T01:36:21.489Z,942.34
2017-06-24T01:36:50.018Z,942.32
2017-06-24T01:37:18.597Z,942.28
2017-06-24T01:37:47.190Z,942.29
2017-06-24T01:38:15.785Z,942.3
2017-06-24T01:38:44.294Z,942.32
2017-06-24T01:39:12.787Z,942.31
2017-06-24T01:39:41.377Z,942.28
2017-06-24T01:40:09.897Z,942.33
2017-06-24T01:40:38.503Z,942.31
2017-06-24T01:41:06.936Z,942.36
2017-06-24T01:41:35.545Z,942.4
2017-06-24T01:42:04.048Z,942.36
2017-06-24T01:42:32.571Z,942.33
2017-06-24T01:43:01.223Z,942.36
2017-06-24T01:43:29.841Z,942.36
2017-06-24T01:43:58.465Z,942.35
2017-06-24T01:44:27.042Z,942.37
2017-06-24T01:44:55.651Z,942.38
2017-06-24T01:45:24.257Z,942.38
2017-06-24T01:45:52.861Z,942.33
2017-06-24T01:46:21.259Z,942.4
2017-06-24T01:46:49.860Z,942.38
2017-06-24T01:47:18.453Z,942.4
2017-06-24T01:47:47.056Z,942.37
2017-06-24T01:48:15.649Z,942.37
2017-06-24T01:48:44.233Z,942.37
2017-06-24T01:49:12.770Z,942.37
2017-06-24T01:49:41.399Z,942.38
2017-06-24T01:50:10.011Z,942.38
2017-06-24T01:50:38.626Z,942.37
2017-06-24T01:51:07.224Z,942.38
2017-06-24T01:51:35.739Z,942.38
2017-06-24T01:52:04.345Z,942.39
2017-06-24T01:52:32.958Z,942.37
2017-06-24T01:53:01.553Z,942.37
2017-06-24T01:53:30.076Z,942.36
2017-06-24T01:53:58.681Z,942.36
2017-06-24T01:54:27.226Z,942.41
2017-06-24T01:54:55.699Z,942.38
2017-06-24T01:55:24.292Z,942.38
2017-06-24T01:55:52.895Z,942.39
2017-06-24T01:56:21.425Z,942.39
2017-06-24T01:56:50.062Z,942.41
2017-06-24T01:57:18.600Z,942.4
2017-06-24T01:57:47.203Z,942.42
2017-06-24T01:58:15.717Z,942.41
2017-06-24T01:58:44.342Z,942.42
2017-06-24T01:59:12.828Z,942.41
2017-06-24T01:59:41.431Z,942.4
2017-06-24T02:00:09.944Z,942.39
2017-06-24T02:00:38.571Z,942.44
2017-06-24T02:01:07.186Z,942.43
2017-06-24T02:01:35.799Z,942.42
2017-06-24T02:02:04.425Z,942.45
2017-06-24T02:02:33.038Z,942.42
2017-06-24T02:03:01.665Z,942.42
2017-06-24T02:03:30.267Z,942.41
2017-06-24T02:03:58.815Z,942.47
2017-06-24T02:04:27.414Z,942.42
2017-06-24T02:04:56.034Z,942.43
2017-06-24T02:05:24.544Z,942.39
2017-06-24T02:05:53.070Z,942.43
2017-06-24T02:06:21.674Z,942.43
2017-06-24T02:06:50.262Z,942.44
2017-06-24T02:07:18.895Z,942.44
2017-06-24T02:07:47.512Z,942.43
2017-06-24T02:08:16.119Z,942.41
2017-06-24T02:08:44.719Z,942.41
2017-06-24T02:09:13.310Z,942.43
2017-06-24T02:09:41.806Z,942.42
2017-06-24T02:10:10.404Z,942.43
2017-06-24T02:10:39.013Z,942.43
2017-06-24T02:11:07.529Z,942.43
2017-06-24T02:11:36.101Z,942.42
2017-06-24T02:12:04.725Z,942.42
2017-06-24T02:12:33.322Z,942.43
2017-06-24T02:13:01.840Z,942.46
2017-06-24T02:13:30.340Z,942.45
2017-06-24T02:13:58.928Z,942.43
2017-06-24T02:14:27.530Z,942.45
2017-06-24T02:14:56.056Z,942.46
2017-06-24T02:15:24.651Z,942.46
2017-06-24T02:15:53.237Z,942.42
2017-06-24T02:16:21.873Z,942.41
2017-06-24T02:16:50.473Z,942.4
2017-06-24T02:17:18.978Z,942.42
2017-06-24T02:17:47.617Z,942.44
2017-06-24T02:18:28.639Z,942.38
2017-06-24T02:18:56.774Z,942.41
2017-06-24T02:19:24.896Z,942.36
2017-06-24T02:19:53.041Z,942.41
2017-06-24T02:20:21.165Z,942.4
2017-06-24T02:20:49.310Z,942.43
2017-06-24T02:21:17.360Z,942.41
2017-06-24T02:21:45.504Z,942.37
2017-06-24T02:22:13.644Z,942.41
2017-06-24T02:22:41.738Z,942.4
2017-06-24T02:23:09.884Z,942.39
2017-06-24T02:23:37.905Z,942.39
2017-06-24T02:24:05.949Z,942.39
2017-06-24T02:24:34.101Z,942.42
2017-06-24T02:25:02.141Z,942.39
2017-06-24T02:25:30.280Z,942.39
2017-06-24T02:25:58.438Z,942.4
2017-06-24T02:26:26.587Z,942.41
2017-06-24T02:26:54.715Z,942.41
2017-06-24T02:27:22.848Z,942.39
2017-06-24T02:27:51.001Z,942.37
2017-06-24T02:28:19.124Z,942.37
2017-06-24T02:28:47.263Z,942.39
2017-06-24T02:29:15.407Z,942.38
2017-06-24T02:29:43.538Z,942.37
2017-06-24T02:30:11.583Z,942.39
2017-06-24T02:30:39.719Z,942.35
2017-06-24T02:31:07.885Z,942.37
2017-06-24T02:31:35.917Z,942.37
2017-06-24T02:32:03.977Z,942.39
2017-06-24T02:32:31.997Z,942.4
2017-06-24T02:33:00.128Z,942.42
2017-06-24T02:33:28.273Z,942.44
2017-06-24T02:33:56.409Z,942.44
2017-06-24T02:34:24.539Z,942.41
2017-06-24T02:34:52.663Z,942.43
2017-06-24T02:35:20.595Z,942.42
2017-06-24T02:35:48.645Z,942.42
2017-06-24T02:36:16.788Z,942.41
2017-06-24T02:36:44.833Z,942.41
2017-06-24T02:37:12.788Z,942.42
2017-06-24T02:37:40.913Z,942.41
2017-06-24T02:38:09.049Z,942.45
2017-06-24T02:38:37.154Z,942.43
2017-06-24T02:39:05.206Z,942.43
2017-06-24T02:39:33.321Z,942.45
2017-06-24T02:40:01.423Z,942.43
2017-06-24T02:40:29.546Z,942.45
2017-06-24T02:40:57.675Z,942.44
2017-06-24T02:41:25.797Z,942.42
2017-06-24T02:41:53.876Z,942.4
2017-06-24T02:42:21.997Z,942.41
2017-06-24T02:42:50.102Z,942.42
2017-06-24T02:43:18.240Z,942.41
2017-06-24T02:43:46.248Z,942.43
2017-06-24T02:44:14.197Z,942.4
2017-06-24T02:44:42.326Z,942.4
2017-06-24T02:45:10.378Z,942.43
2017-06-24T02:45:38.519Z,942.43
2017-06-24T02:46:06.671Z,942.43
2017-06-24T02:46:34.818Z,942.38
2017-06-24T02:47:02.836Z,942.42
2017-06-24T02:47:30.892Z,942.43
2017-06-24T02:47:59.039Z,942.41
2017-06-24T02:48:27.198Z,942.42
2017-06-24T02:48:55.223Z,942.41
2017-06-24T02:49:23.265Z,942.42
2017-06-24T02:49:51.217Z,942.41
2017-06-24T02:50:19.172Z,942.41
2017-06-24T02:50:47.332Z,942.42
2017-06-24T02:51:15.378Z,942.38
2017-06-24T02:51:43.428Z,942.39
2017-06-24T02:52:11.551Z,942.4
2017-06-24T02:52:39.650Z,942.39
2017-06-24T02:53:07.760Z,942.39
2017-06-24T02:53:35.913Z,942.41
2017-06-24T02:54:04.039Z,942.42
2017-06-24T02:54:32.145Z,942.4
2017-06-24T02:55:00.176Z,942.39
2017-06-24T02:55:28.332Z,942.42
2017-06-24T02:55:56.292Z,942.39
2017-06-24T02:56:24.326Z,942.38
2017-06-24T02:56:52.370Z,942.37
2017-06-24T02:57:20.420Z,942.39
2017-06-24T02:57:48.559Z,942.36
2017-06-24T02:58:16.597Z,942.36
2017-06-24T02:58:44.624Z,942.36
2017-06-24T02:59:12.767Z,942.37
2017-06-24T02:59:40.892Z,942.32
2017-06-24T03:00:08.856Z,942.32
2017-06-24T03:00:36.929Z,942.31
2017-06-24T03:01:05.083Z,942.33
2017-06-24T03:01:33.236Z,942.32
2017-06-24T03:02:01.364Z,942.33
2017-06-24T03:02:29.473Z,942.31
2017-06-24T03:02:57.581Z,942.33
2017-06-24T03:03:25.646Z,942.29
2017-06-24T03:03:53.692Z,942.3
2017-06-24T03:04:21.791Z,942.33
2017-06-24T03:04:49.935Z,942.32
2017-06-24T03:05:17.966Z,942.29
2017-06-24T03:05:46.122Z,942.28
2017-06-24T03:06:14.159Z,942.25
2017-06-24T03:06:42.315Z,942.24
2017-06-24T03:07:10.454Z,942.25
2017-06-24T03:07:38.617Z,942.26
2017-06-24T03:08:06.776Z,942.27
2017-06-24T03:08:34.837Z,942.25
2017-06-24T03:09:02.996Z,942.29
2017-06-24T03:09:31.140Z,942.28
2017-06-24T03:09:59.276Z,942.26
2017-06-24T03:10:27.415Z,942.24
2017-06-24T03:10:55.544Z,942.22
2017-06-24T03:11:23.659Z,942.24
2017-06-24T03:11:51.766Z,942.28
2017-06-24T03:12:19.903Z,942.27
2017-06-24T03:12:47.870Z,942.24
2017-06-24T03:13:15.995Z,942.26
2017-06-24T03:13:44.132Z,942.27
2017-06-24T03:14:12.259Z,942.22
2017-06-24T03:14:40.402Z,942.23
2017-06-24T03:15:08.530Z,942.26
2017-06-24T03:15:36.645Z,942.22
2017-06-24T03:16:04.793Z,942.25
2017-06-24T03:16:32.815Z,942.23
2017-06-24T03:17:00.943Z,942.22
2017-06-24T03:17:29.066Z,942.19
2017-06-24T03:17:57.214Z,942.23
2017-06-24T03:18:25.321Z,942.22
2017-06-24T03:18:53.352Z,942.21
2017-06-24T03:19:21.508Z,942.22
2017-06-24T03:19:49.637Z,942.23
2017-06-24T03:20:17.680Z,942.19
2017-06-24T03:20:45.836Z,942.2
2017-06-24T03:21:13.945Z,942.2
2017-06-24T03:21:42.104Z,942.17
2017-06-24T03:22:10.213Z,942.24
2017-06-24T03:22:38.383Z,942.18
2017-06-24T03:23:06.436Z,942.2
2017-06-24T03:23:34.579Z,942.22
2017-06-24T03:24:02.728Z,942.21
2017-06-24T03:24:30.849Z,942.24
2017-06-24T03:24:58.994Z,942.22
2017-06-24T03:25:27.013Z,942.23
2017-06-24T03:25:55.182Z,942.24
2017-06-24T03:26:23.299Z,942.18
2017-06-24T03:26:51.452Z,942.21
2017-06-24T03:27:19.479Z,942.24
2017-06-24T03:27:47.624Z,942.24
2017-06-24T03:28:15.745Z,942.21
2017-06-24T03:28:43.895Z,942.24
2017-06-24T03:29:12.037Z,942.2
2017-06-24T03:29:40.186Z,942.22
2017-06-24T03:30:08.293Z,942.17
2017-06-24T03:30:36.437Z,942.2
2017-06-24T03:31:04.476Z,942.19
2017-06-24T03:31:32.604Z,942.19
2017-06-24T03:32:00.870Z,942.19
2017-06-24T03:32:29.005Z,942.2
2017-06-24T03:32:57.155Z,942.23
2017-06-24T03:33:25.291Z,942.23
2017-06-24T03:33:53.422Z,942.21
2017-06-24T03:34:21.526Z,942.2
2017-06-24T03:34:49.582Z,942.24
2017-06-24T03:35:17.612Z,942.23
2017-06-24T03:35:45.764Z,942.21
2017-06-24T03:36:13.881Z,942.18
2017-06-24T03:36:42.036Z,942.18
2017-06-24T03:37:10.182Z,942.2
2017-06-24T03:37:38.243Z,942.18
2017-06-24T03:38:06.358Z,942.17
2017-06-24T03:38:34.488Z,942.23
2017-06-24T03:39:02.618Z,942.21
2017-06-24T03:39:30.588Z,942.22
2017-06-24T03:39:58.635Z,942.22
2017-06-24T03:40:26.677Z,942.2
2017-06-24T03:40:54.826Z,942.23
2017-06-24T03:41:22.949Z,942.24
2017-06-24T03:41:51.081Z,942.24
2017-06-24T03:42:19.211Z,942.24
2017-06-24T03:42:47.345Z,942.22
2017-06-24T03:43:15.489Z,942.22
2017-06-24T03:43:43.594Z,942.19
2017-06-24T03:44:11.727Z,942.19
2017-06-24T03:44:39.838Z,942.19
2017-06-24T03:45:07.974Z,942.19
2017-06-24T03:45:36.010Z,942.21
2017-06-24T03:46:04.030Z,942.19
2017-06-24T03:46:32.074Z,942.19
2017-06-24T03:47:00.080Z,942.17
2017-06-24T03:47:28.119Z,942.17
2017-06-24T03:47:56.155Z,942.18
2017-06-24T03:48:24.302Z,942.2
2017-06-24T03:48:52.445Z,942.17
2017-06-24T03:49:20.594Z,942.19
2017-06-24T03:49:48.736Z,942.17
2017-06-24T03:50:16.855Z,942.15
2017-06-24T03:50:44.882Z,942.2
2017-06-24T03:51:13.013Z,942.12
2017-06-24T03:51:41.155Z,942.11
2017-06-24T03:52:09.187Z,942.11
2017-06-24T03:52:37.233Z,942.11
2017-06-24T03:53:05.375Z,942.09
2017-06-24T03:53:33.424Z,942.14
2017-06-24T03:54:01.566Z,942.11
2017-06-24T03:54:29.610Z,942.11
2017-06-24T03:54:57.674Z,942.12
2017-06-24T03:55:25.702Z,942.11
2017-06-24T03:55:53.820Z,942.15
2017-06-24T03:56:21.948Z,942.16
2017-06-24T03:56:50.061Z,942.15
2017-06-24T03:57:18.169Z,942.13
2017-06-24T03:57:46.199Z,942.15
2017-06-24T03:58:14.245Z,942.14
2017-06-24T03:58:42.396Z,942.11
2017-06-24T03:59:10.442Z,942.13
2017-06-24T03:59:38.570Z,942.12
2017-06-24T04:00:06.620Z,942.16
2017-06-24T04:00:34.746Z,942.16
2017-06-24T04:01:02.857Z,942.17
2017-06-24T04:01:31.007Z,942.19
2017-06-24T04:01:59.146Z,942.2
2017-06-24T04:02:27.280Z,942.19
2017-06-24T04:02:55.394Z,942.18
2017-06-24T04:03:23.513Z,942.17
2017-06-24T04:03:51.655Z,942.17
2017-06-24T04:04:19.817Z,942.18
2017-06-24T04:04:47.933Z,942.22
2017-06-24T04:05:15.962Z,942.2
2017-06-24T04:05:44.098Z,942.21
2017-06-24T04:06:12.028Z,942.18
2017-06-24T04:06:40.169Z,942.19
2017-06-24T04:07:08.296Z,942.19
2017-06-24T04:07:36.247Z,942.2
2017-06-24T04:08:04.376Z,942.2
2017-06-24T04:08:32.508Z,942.23
2017-06-24T04:09:00.553Z,942.24
2017-06-24T04:09:28.692Z,942.2
2017-06-24T04:09:56.822Z,942.2
2017-06-24T04:10:24.960Z,942.2
2017-06-24T04:10:53.063Z,942.19
2017-06-24T04:11:21.203Z,942.21
2017-06-24T04:11:49.338Z,942.21
2017-06-24T04:12:17.450Z,942.2
2017-06-24T04:12:45.585Z,942.2
2017-06-24T04:13:13.730Z,942.16
2017-06-24T04:13:41.872Z,942.21
2017-06-24T04:14:10.008Z,942.16
2017-06-24T04:14:38.144Z,942.18
2017-06-24T04:15:06.084Z,942.22
2017-06-24T04:15:34.219Z,942.14
2017-06-24T04:16:02.386Z,942.22
2017-06-24T04:16:30.426Z,942.2
2017-06-24T04:16:58.442Z,942.19
2017-06-24T04:17:26.367Z,942.14
2017-06-24T04:17:54.501Z,942.17
2017-06-24T04:18:22.459Z,942.21
2017-06-24T04:18:50.619Z,942.19
2017-06-24T04:19:18.753Z,942.17
2017-06-24T04:19:46.884Z,942.15
2017-06-24T04:20:14.907Z,942.17
2017-06-24T04:20:43.014Z,942.17
2017-06-24T04:21:11.132Z,942.19
2017-06-24T04:21:39.246Z,942.19
2017-06-24T04:22:07.653Z,942.15
2017-06-24T04:22:35.795Z,942.16
2017-06-24T04:23:03.924Z,942.15
2017-06-24T04:23:32.078Z,942.15
2017-06-24T04:24:00.203Z,942.16
2017-06-24T04:24:28.221Z,942.14
2017-06-24T04:24:56.254Z,942.17
2017-06-24T04:25:24.391Z,942.17
2017-06-24T04:25:52.565Z,942.16
2017-06-24T04:26:20.726Z,942.14
2017-06-24T04:26:48.853Z,942.16
2017-06-24T04:27:16.975Z,942.14
2017-06-24T04:27:45.125Z,942.2
2017-06-24T04:28:13.257Z,942.19
2017-06-24T04:28:41.297Z,942.17
2017-06-24T04:29:09.419Z,942.19
2017-06-24T04:29:37.537Z,942.2
2017-06-24T04:30:05.579Z,942.16
2017-06-24T04:30:33.733Z,942.17
2017-06-24T04:31:01.836Z,942.16
2017-06-24T04:31:29.983Z,942.17
2017-06-24T04:31:57.998Z,942.17
2017-06-24T04:32:26.120Z,942.14
2017-06-24T04:32:54.250Z,942.16
2017-06-24T04:33:22.382Z,942.16
2017-06-24T04:33:50.413Z,942.13
2017-06-24T04:34:18.807Z,942.15
2017-06-24T04:34:46.928Z,942.15
2017-06-24T04:35:15.076Z,942.18
2017-06-24T04:35:43.247Z,942.11
2017-06-24T04:36:11.406Z,942.1
2017-06-24T04:36:39.520Z,942.11
2017-06-24T04:37:07.536Z,942.11
2017-06-24T04:37:35.662Z,942.06
2017-06-24T04:38:03.711Z,942.05
2017-06-24T04:38:31.844Z,942.1
2017-06-24T04:38:59.965Z,942.06
2017-06-24T04:39:27.911Z,942.03
2017-06-24T04:39:56.056Z,942.03
2017-06-24T04:40:23.991Z,942.02
2017-06-24T04:40:52.108Z,942.02
2017-06-24T04:41:20.251Z,942.02
2017-06-24T04:41:48.416Z,942.03
2017-06-24T04:42:16.465Z,942
2017-06-24T04:42:44.489Z,942.03
2017-06-24T04:43:12.612Z,942
2017-06-24T04:43:40.743Z,942.03
2017-06-24T04:44:08.871Z,942
2017-06-24T04:44:37.026Z,942.01
2017-06-24T04:45:05.154Z,942.01
2017-06-24T04:45:33.270Z,942.01
2017-06-24T04:46:01.387Z,941.98
2017-06-24T04:46:29.450Z,941.99
2017-06-24T04:46:57.592Z,942.02
2017-06-24T04:47:25.715Z,941.97
2017-06-24T04:47:53.761Z,942.01
2017-06-24T04:48:21.877Z,941.96
2017-06-24T04:48:50.044Z,941.96
2017-06-24T04:49:18.156Z,941.91
2017-06-24T04:49:46.270Z,941.95
2017-06-24T04:50:14.327Z,941.94
2017-06-24T04:50:42.388Z,941.91
2017-06-24T04:51:10.504Z,941.89
2017-06-24T04:51:38.628Z,941.9
2017-06-24T04:52:06.791Z,941.86
2017-06-24T04:52:34.938Z,941.87
2017-06-24T04:53:03.095Z,941.91
2017-06-24T04:53:31.230Z,941.85
2017-06-24T04:53:59.375Z,941.87
2017-06-24T04:54:27.509Z,941.85
2017-06-24T04:54:55.437Z,941.83
2017-06-24T04:55:23.541Z,941.85
2017-06-24T04:55:51.565Z,941.85
2017-06-24T04:56:19.598Z,941.81
2017-06-24T04:56:47.746Z,941.83
2017-06-24T04:57:15.901Z,941.84
2017-06-24T04:57:44.057Z,941.82
2017-06-24T04:58:12.195Z,941.81
2017-06-24T04:58:40.342Z,941.87
2017-06-24T04:59:08.487Z,941.86
2017-06-24T04:59:36.595Z,941.83
2017-06-24T05:00:04.707Z,941.84
2017-06-24T05:00:32.828Z,941.83
2017-06-24T05:01:00.998Z,941.85
2017-06-24T05:01:29.043Z,941.82
2017-06-24T05:01:57.181Z,941.85
2017-06-24T05:02:25.238Z,941.81
2017-06-24T05:02:53.359Z,941.86
2017-06-24T05:03:21.485Z,941.84
2017-06-24T05:03:49.620Z,941.83
2017-06-24T05:04:17.780Z,941.84
2017-06-24T05:04:45.915Z,941.83
2017-06-24T05:05:13.944Z,941.84
2017-06-24T05:05:42.085Z,941.82
2017-06-24T05:06:10.114Z,941.81
2017-06-24T05:06:38.269Z,941.82
2017-06-24T05:07:06.375Z,941.81
2017-06-24T05:07:34.528Z,941.82
2017-06-24T05:08:02.557Z,941.81
2017-06-24T05:08:30.660Z,941.8
2017-06-24T05:08:58.701Z,941.82
2017-06-24T05:09:26.821Z,941.86
2017-06-24T05:09:54.967Z,941.79
2017-06-24T05:10:22.995Z,941.84
2017-06-24T05:10:50.934Z,941.83
2017-06-24T05:11:19.054Z,941.83
2017-06-24T05:11:47.192Z,941.87
2017-06-24T05:12:15.338Z,941.83
2017-06-24T05:12:43.440Z,941.87
2017-06-24T05:13:11.496Z,941.82
2017-06-24T05:13:39.596Z,941.82
2017-06-24T05:14:07.652Z,941.84
2017-06-24T05:14:35.801Z,941.83
2017-06-24T05:15:03.841Z,941.83
2017-06-24T05:15:31.976Z,941.81
2017-06-24T05:16:00.130Z,941.81
2017-06-24T05:16:28.280Z,941.86
2017-06-24T05:16:56.388Z,941.8
2017-06-24T05:17:24.449Z,941.85
2017-06-24T05:17:52.552Z,941.85
2017-06-24T05:18:20.687Z,941.89
2017-06-24T05:18:48.791Z,941.84
2017-06-24T05:19:16.804Z,941.9
2017-06-24T05:19:44.859Z,941.88
2017-06-24T05:20:12.894Z,941.84
2017-06-24T05:20:40.944Z,941.84
2017-06-24T05:21:08.989Z,941.88
2017-06-24T05:21:37.115Z,941.86
2017-06-24T05:22:05.263Z,941.82
2017-06-24T05:22:33.401Z,941.84
2017-06-24T05:23:01.417Z,941.83
2017-06-24T05:23:29.581Z,941.89
2017-06-24T05:23:57.627Z,941.84
2017-06-24T05:24:25.728Z,941.83
2017-06-24T05:24:53.876Z,941.79
2017-06-24T05:25:22.000Z,941.8
2017-06-24T05:25:49.967Z,941.83
2017-06-24T05:26:18.098Z,941.77
2017-06-24T05:26:46.429Z,941.8
2017-06-24T05:27:14.462Z,941.83
2017-06-24T05:27:42.603Z,941.79
2017-06-24T05:28:10.505Z,941.77
2017-06-24T05:28:38.543Z,941.82
2017-06-24T05:29:06.680Z,941.79
2017-06-24T05:29:34.750Z,941.79
2017-06-24T05:30:02.800Z,941.8
2017-06-24T05:30:30.903Z,941.8
2017-06-24T05:30:59.021Z,941.79
2017-06-24T05:31:27.148Z,941.73
2017-06-24T05:31:55.263Z,941.77
2017-06-24T05:32:23.303Z,941.72
2017-06-24T05:32:51.452Z,941.72
2017-06-24T05:33:19.504Z,941.77
2017-06-24T05:33:47.644Z,941.72
2017-06-24T05:34:15.673Z,941.73
2017-06-24T05:34:43.701Z,941.75
2017-06-24T05:35:11.866Z,941.79
2017-06-24T05:35:39.907Z,941.77
2017-06-24T05:36:08.047Z,941.74
2017-06-24T05:36:36.164Z,941.75
2017-06-24T05:37:04.275Z,941.69
2017-06-24T05:37:32.351Z,941.74
2017-06-24T05:38:00.480Z,941.76
2017-06-24T05:38:28.516Z,941.72
2017-06-24T05:38:56.551Z,941.71
2017-06-24T05:39:24.676Z,941.71
2017-06-24T05:39:52.824Z,941.7
2017-06-24T05:40:20.965Z,941.7
2017-06-24T05:40:49.092Z,941.71
2017-06-24T05:41:17.245Z,941.69
2017-06-24T05:41:45.402Z,941.66
2017-06-24T05:42:13.342Z,941.7
2017-06-24T05:42:41.394Z,941.67
2017-06-24T05:43:09.329Z,941.71
2017-06-24T05:43:37.483Z,941.66
2017-06-24T05:44:05.585Z,941.64
2017-06-24T05:44:33.744Z,941.64
2017-06-24T05:45:01.780Z,941.64
2017-06-24T05:45:29.908Z,941.6
2017-06-24T05:45:57.957Z,941.62
2017-06-24T05:46:26.001Z,941.61
2017-06-24T05:46:54.069Z,941.59
2017-06-24T05:47:22.184Z,941.59
2017-06-24T05:47:50.328Z,941.59
2017-06-24T05:48:18.387Z,941.6
2017-06-24T05:48:46.519Z,941.58
2017-06-24T05:49:14.568Z,941.58
2017-06-24T05:49:42.726Z,941.61
2017-06-24T05:50:10.870Z,941.63
2017-06-24T05:50:38.999Z,941.62
2017-06-24T05:51:07.120Z,941.61
2017-06-24T05:51:35.268Z,941.59
2017-06-24T05:52:03.281Z,941.62
2017-06-24T05:52:31.410Z,941.59
2017-06-24T05:52:59.445Z,941.64
2017-06-24T05:53:27.480Z,941.6
2017-06-24T05:53:55.610Z,941.57